sensor_id;sensor_type;location;lat;lon;timestamp;pressure;altitude;pressure_sealevel;temperature;humidity
74613;BME280;63119;51.788;8.824;2023-08-06T00:01:22;99125.44;;;15.73;88.41
74613;BME280;63119;51.788;8.824;2023-08-06T00:03:48;99123.50;;;15.83;89.35
74613;BME280;63119;51.788;8.824;2023-08-06T00:06:13;99128.38;;;15.96;87.88
74613;BME280;63119;51.788;8.824;2023-08-06T00:08:38;99134.31;;;15.82;88.66
74613;BME280;63119;51.788;8.824;2023-08-06T00:11:03;99126.41;;;15.98;86.71
74613;BME280;63119;51.788;8.824;2023-08-06T00:13:29;99117.38;;;15.99;87.19
74613;BME280;63119;51.788;8.824;2023-08-06T00:15:54;99120.88;;;15.92;88.38
74613;BME280;63119;51.788;8.824;2023-08-06T00:18:19;99115.41;;;16.01;88.07
74613;BME280;63119;51.788;8.824;2023-08-06T00:20:44;99112.09;;;16.07;86.72
74613;BME280;63119;51.788;8.824;2023-08-06T00:23:10;99108.91;;;16.04;87.97
74613;BME280;63119;51.788;8.824;2023-08-06T00:25:36;99115.09;;;16.04;86.71
74613;BME280;63119;51.788;8.824;2023-08-06T00:28:01;99113.63;;;16.10;86.68
74613;BME280;63119;51.788;8.824;2023-08-06T00:30:27;99110.06;;;16.01;87.37
74613;BME280;63119;51.788;8.824;2023-08-06T00:32:52;99114.03;;;15.89;87.78
74613;BME280;63119;51.788;8.824;2023-08-06T00:35:17;99116.69;;;15.89;87.81
74613;BME280;63119;51.788;8.824;2023-08-06T00:37:43;99116.47;;;15.82;88.49
74613;BME280;63119;51.788;8.824;2023-08-06T00:40:08;99106.66;;;15.83;88.11
74613;BME280;63119;51.788;8.824;2023-08-06T00:42:33;99113.50;;;15.85;87.87
74613;BME280;63119;51.788;8.824;2023-08-06T00:45:00;99108.00;;;15.87;88.12
74613;BME280;63119;51.788;8.824;2023-08-06T00:47:25;99097.25;;;15.71;89.80
74613;BME280;63119;51.788;8.824;2023-08-06T00:49:51;99100.28;;;15.76;89.45
74613;BME280;63119;51.788;8.824;2023-08-06T00:52:16;99104.38;;;15.96;89.04
74613;BME280;63119;51.788;8.824;2023-08-06T00:54:42;99089.28;;;15.79;88.94
74613;BME280;63119;51.788;8.824;2023-08-06T00:57:07;99092.31;;;15.84;88.81
74613;BME280;63119;51.788;8.824;2023-08-06T00:59:34;99086.69;;;15.95;88.47
74613;BME280;63119;51.788;8.824;2023-08-06T01:01:59;99089.56;;;16.02;88.41
74613;BME280;63119;51.788;8.824;2023-08-06T01:04:25;99087.66;;;15.86;88.46
74613;BME280;63119;51.788;8.824;2023-08-06T01:09:54;99071.22;;;15.65;89.78
74613;BME280;63119;51.788;8.824;2023-08-06T01:14:56;99059.50;;;15.58;90.33
74613;BME280;63119;51.788;8.824;2023-08-06T01:17:23;99061.81;;;15.53;90.49
74613;BME280;63119;51.788;8.824;2023-08-06T01:19:48;99062.50;;;15.63;91.46
74613;BME280;63119;51.788;8.824;2023-08-06T01:22:14;99060.69;;;15.38;91.04
74613;BME280;63119;51.788;8.824;2023-08-06T01:24:41;99051.75;;;15.47;91.07
74613;BME280;63119;51.788;8.824;2023-08-06T01:27:16;99049.94;;;15.29;91.96
74613;BME280;63119;51.788;8.824;2023-08-06T01:29:49;99045.34;;;15.40;91.97
74613;BME280;63119;51.788;8.824;2023-08-06T01:32:20;99043.66;;;15.56;90.80
74613;BME280;63119;51.788;8.824;2023-08-06T01:34:47;99045.03;;;15.43;91.19
74613;BME280;63119;51.788;8.824;2023-08-06T01:37:13;99032.50;;;15.35;91.64
74613;BME280;63119;51.788;8.824;2023-08-06T01:39:42;99031.72;;;15.43;91.77
74613;BME280;63119;51.788;8.824;2023-08-06T01:42:08;99033.66;;;15.58;90.83
74613;BME280;63119;51.788;8.824;2023-08-06T01:44:34;99025.66;;;15.58;91.13
74613;BME280;63119;51.788;8.824;2023-08-06T01:46:59;99034.19;;;15.62;89.90
74613;BME280;63119;51.788;8.824;2023-08-06T01:49:25;99032.69;;;15.59;89.78
74613;BME280;63119;51.788;8.824;2023-08-06T01:51:50;99032.63;;;15.51;91.05
74613;BME280;63119;51.788;8.824;2023-08-06T01:54:15;99033.47;;;15.52;90.47
74613;BME280;63119;51.788;8.824;2023-08-06T01:56:40;99029.63;;;15.54;90.49
74613;BME280;63119;51.788;8.824;2023-08-06T01:59:06;99024.09;;;15.48;90.73
74613;BME280;63119;51.788;8.824;2023-08-06T02:01:31;99023.22;;;15.65;90.08
74613;BME280;63119;51.788;8.824;2023-08-06T02:03:56;99020.38;;;15.66;89.67
74613;BME280;63119;51.788;8.824;2023-08-06T02:06:21;99016.84;;;15.66;89.80
74613;BME280;63119;51.788;8.824;2023-08-06T02:08:47;99020.47;;;15.57;89.69
74613;BME280;63119;51.788;8.824;2023-08-06T02:11:12;99015.34;;;15.63;90.80
74613;BME280;63119;51.788;8.824;2023-08-06T02:13:37;99013.72;;;15.70;89.66
74613;BME280;63119;51.788;8.824;2023-08-06T02:16:03;99014.69;;;15.61;88.82
74613;BME280;63119;51.788;8.824;2023-08-06T02:18:28;99015.88;;;15.67;89.31
74613;BME280;63119;51.788;8.824;2023-08-06T02:20:57;99017.38;;;15.69;88.43
74613;BME280;63119;51.788;8.824;2023-08-06T02:23:23;99009.06;;;15.72;88.90
74613;BME280;63119;51.788;8.824;2023-08-06T02:25:48;99006.97;;;15.50;89.80
74613;BME280;63119;51.788;8.824;2023-08-06T02:28:13;99002.84;;;15.56;89.59
74613;BME280;63119;51.788;8.824;2023-08-06T02:30:39;98998.69;;;15.36;90.83
74613;BME280;63119;51.788;8.824;2023-08-06T02:33:04;98996.00;;;15.36;90.42
74613;BME280;63119;51.788;8.824;2023-08-06T02:35:29;98987.56;;;15.40;90.51
74613;BME280;63119;51.788;8.824;2023-08-06T02:37:54;98981.91;;;15.43;90.52
74613;BME280;63119;51.788;8.824;2023-08-06T02:40:20;98985.66;;;15.32;90.45
74613;BME280;63119;51.788;8.824;2023-08-06T02:42:45;98985.47;;;15.26;90.44
74613;BME280;63119;51.788;8.824;2023-08-06T02:45:10;98977.00;;;15.30;90.58
74613;BME280;63119;51.788;8.824;2023-08-06T02:47:35;98977.03;;;15.39;90.28
74613;BME280;63119;51.788;8.824;2023-08-06T02:50:01;98976.66;;;15.25;89.84
74613;BME280;63119;51.788;8.824;2023-08-06T02:52:26;98976.69;;;15.33;90.31
74613;BME280;63119;51.788;8.824;2023-08-06T02:54:51;98975.69;;;15.35;90.38
74613;BME280;63119;51.788;8.824;2023-08-06T02:57:16;98969.25;;;15.45;89.36
74613;BME280;63119;51.788;8.824;2023-08-06T02:59:42;98962.53;;;15.41;89.11
74613;BME280;63119;51.788;8.824;2023-08-06T03:02:07;98957.56;;;15.12;91.12
74613;BME280;63119;51.788;8.824;2023-08-06T03:04:32;98954.84;;;15.30;90.36
74613;BME280;63119;51.788;8.824;2023-08-06T03:06:57;98952.19;;;15.38;89.88
74613;BME280;63119;51.788;8.824;2023-08-06T03:09:23;98945.66;;;15.24;90.48
74613;BME280;63119;51.788;8.824;2023-08-06T03:11:48;98948.47;;;15.23;90.39
74613;BME280;63119;51.788;8.824;2023-08-06T03:14:13;98951.34;;;15.29;90.25
74613;BME280;63119;51.788;8.824;2023-08-06T03:16:38;98951.81;;;15.25;90.00
74613;BME280;63119;51.788;8.824;2023-08-06T03:19:04;98948.94;;;15.18;90.47
74613;BME280;63119;51.788;8.824;2023-08-06T03:21:29;98956.06;;;15.10;91.12
74613;BME280;63119;51.788;8.824;2023-08-06T03:23:54;98942.22;;;15.06;91.00
74613;BME280;63119;51.788;8.824;2023-08-06T03:26:20;98941.09;;;15.17;90.73
74613;BME280;63119;51.788;8.824;2023-08-06T03:28:45;98936.84;;;14.98;91.68
74613;BME280;63119;51.788;8.824;2023-08-06T03:31:10;98940.84;;;15.02;91.73
74613;BME280;63119;51.788;8.824;2023-08-06T03:33:35;98941.88;;;15.01;91.77
74613;BME280;63119;51.788;8.824;2023-08-06T03:36:01;98943.19;;;15.05;90.96
74613;BME280;63119;51.788;8.824;2023-08-06T03:38:26;98946.03;;;15.04;90.81
74613;BME280;63119;51.788;8.824;2023-08-06T03:40:52;98939.69;;;15.05;90.63
74613;BME280;63119;51.788;8.824;2023-08-06T03:43:18;98944.31;;;14.95;91.37
74613;BME280;63119;51.788;8.824;2023-08-06T03:45:43;98944.16;;;14.96;90.78
74613;BME280;63119;51.788;8.824;2023-08-06T03:48:09;98939.13;;;14.93;90.89
74613;BME280;63119;51.788;8.824;2023-08-06T03:50:34;98933.75;;;14.85;91.45
74613;BME280;63119;51.788;8.824;2023-08-06T03:53:00;98928.00;;;14.72;93.11
74613;BME280;63119;51.788;8.824;2023-08-06T03:55:25;98928.88;;;14.55;93.99
74613;BME280;63119;51.788;8.824;2023-08-06T03:57:50;98918.59;;;14.60;93.85
74613;BME280;63119;51.788;8.824;2023-08-06T04:00:16;98921.47;;;14.66;93.46
74613;BME280;63119;51.788;8.824;2023-08-06T04:02:42;98915.72;;;14.71;93.14
74613;BME280;63119;51.788;8.824;2023-08-06T04:05:07;98910.63;;;14.60;93.79
74613;BME280;63119;51.788;8.824;2023-08-06T04:07:33;98906.19;;;14.68;93.64
74613;BME280;63119;51.788;8.824;2023-08-06T04:09:59;98910.53;;;14.69;93.61
74613;BME280;63119;51.788;8.824;2023-08-06T04:12:26;98914.34;;;14.67;93.49
74613;BME280;63119;51.788;8.824;2023-08-06T04:14:52;98919.59;;;14.85;92.87
74613;BME280;63119;51.788;8.824;2023-08-06T04:17:18;98917.16;;;14.91;92.31
74613;BME280;63119;51.788;8.824;2023-08-06T04:19:46;98918.00;;;14.92;91.70
74613;BME280;63119;51.788;8.824;2023-08-06T04:22:12;98915.97;;;14.86;92.64
74613;BME280;63119;51.788;8.824;2023-08-06T04:24:37;98919.50;;;14.94;91.92
74613;BME280;63119;51.788;8.824;2023-08-06T04:27:03;98920.50;;;14.93;92.99
74613;BME280;63119;51.788;8.824;2023-08-06T04:29:28;98919.78;;;14.83;92.99
74613;BME280;63119;51.788;8.824;2023-08-06T04:31:54;98922.59;;;14.82;93.07
74613;BME280;63119;51.788;8.824;2023-08-06T04:34:19;98924.31;;;14.91;93.29
74613;BME280;63119;51.788;8.824;2023-08-06T04:36:44;98916.63;;;14.88;93.25
74613;BME280;63119;51.788;8.824;2023-08-06T04:39:09;98917.63;;;14.87;93.40
74613;BME280;63119;51.788;8.824;2023-08-06T04:41:35;98920.34;;;14.95;93.56
74613;BME280;63119;51.788;8.824;2023-08-06T04:44:00;98917.75;;;15.11;93.15
74613;BME280;63119;51.788;8.824;2023-08-06T04:46:25;98918.59;;;15.11;92.94
74613;BME280;63119;51.788;8.824;2023-08-06T04:48:50;98918.69;;;15.27;92.81
74613;BME280;63119;51.788;8.824;2023-08-06T04:51:16;98924.09;;;15.44;93.37
74613;BME280;63119;51.788;8.824;2023-08-06T04:53:41;98915.81;;;15.55;91.52
74613;BME280;63119;51.788;8.824;2023-08-06T04:56:06;98921.50;;;15.60;91.82
74613;BME280;63119;51.788;8.824;2023-08-06T04:58:32;98926.91;;;15.84;89.94
74613;BME280;63119;51.788;8.824;2023-08-06T05:00:57;98921.28;;;15.95;89.91
74613;BME280;63119;51.788;8.824;2023-08-06T05:03:23;98924.59;;;15.89;90.35
74613;BME280;63119;51.788;8.824;2023-08-06T05:05:48;98917.59;;;15.88;89.14
74613;BME280;63119;51.788;8.824;2023-08-06T05:08:14;98912.75;;;15.83;89.04
74613;BME280;63119;51.788;8.824;2023-08-06T05:10:44;98915.88;;;15.71;89.74
74613;BME280;63119;51.788;8.824;2023-08-06T05:13:10;98917.56;;;15.80;89.20
74613;BME280;63119;51.788;8.824;2023-08-06T05:15:35;98910.91;;;15.84;89.55
74613;BME280;63119;51.788;8.824;2023-08-06T05:18:01;98913.94;;;15.89;88.80
74613;BME280;63119;51.788;8.824;2023-08-06T05:20:26;98917.91;;;15.93;88.69
74613;BME280;63119;51.788;8.824;2023-08-06T05:22:51;98916.78;;;16.04;88.79
74613;BME280;63119;51.788;8.824;2023-08-06T05:25:16;98925.25;;;15.91;88.40
74613;BME280;63119;51.788;8.824;2023-08-06T05:27:42;98918.94;;;16.00;88.50
74613;BME280;63119;51.788;8.824;2023-08-06T05:30:08;98916.78;;;16.04;88.85
74613;BME280;63119;51.788;8.824;2023-08-06T05:32:33;98922.31;;;16.10;88.39
74613;BME280;63119;51.788;8.824;2023-08-06T05:34:59;98928.63;;;16.17;89.29
74613;BME280;63119;51.788;8.824;2023-08-06T05:37:24;98923.97;;;16.27;88.06
74613;BME280;63119;51.788;8.824;2023-08-06T05:39:49;98929.13;;;16.21;88.01
74613;BME280;63119;51.788;8.824;2023-08-06T05:42:15;98920.31;;;16.28;88.51
74613;BME280;63119;51.788;8.824;2023-08-06T05:44:40;98928.97;;;16.38;87.89
74613;BME280;63119;51.788;8.824;2023-08-06T05:47:05;98931.66;;;16.30;88.08
74613;BME280;63119;51.788;8.824;2023-08-06T05:49:30;98938.97;;;16.20;88.38
74613;BME280;63119;51.788;8.824;2023-08-06T05:51:56;98929.00;;;16.22;89.13
74613;BME280;63119;51.788;8.824;2023-08-06T05:54:21;98925.31;;;16.23;89.06
74613;BME280;63119;51.788;8.824;2023-08-06T05:56:46;98928.63;;;16.17;88.65
74613;BME280;63119;51.788;8.824;2023-08-06T05:59:12;98924.97;;;16.10;89.77
74613;BME280;63119;51.788;8.824;2023-08-06T06:01:37;98925.31;;;16.15;90.89
74613;BME280;63119;51.788;8.824;2023-08-06T06:04:02;98926.00;;;16.25;89.69
74613;BME280;63119;51.788;8.824;2023-08-06T06:06:28;98930.97;;;16.12;88.99
74613;BME280;63119;51.788;8.824;2023-08-06T06:08:53;98932.97;;;16.18;89.49
74613;BME280;63119;51.788;8.824;2023-08-06T06:11:19;98929.31;;;16.19;89.12
74613;BME280;63119;51.788;8.824;2023-08-06T06:13:50;98920.81;;;16.24;88.92
74613;BME280;63119;51.788;8.824;2023-08-06T06:16:15;98929.31;;;16.27;88.75
74613;BME280;63119;51.788;8.824;2023-08-06T06:18:41;98930.19;;;16.44;88.22
74613;BME280;63119;51.788;8.824;2023-08-06T06:21:06;98931.34;;;16.50;88.36
74613;BME280;63119;51.788;8.824;2023-08-06T06:23:31;98926.19;;;16.56;88.73
74613;BME280;63119;51.788;8.824;2023-08-06T06:25:56;98927.66;;;16.51;87.38
74613;BME280;63119;51.788;8.824;2023-08-06T06:28:22;98923.66;;;16.63;87.04
74613;BME280;63119;51.788;8.824;2023-08-06T06:30:47;98926.00;;;16.66;87.87
74613;BME280;63119;51.788;8.824;2023-08-06T06:33:12;98924.00;;;16.68;86.93
74613;BME280;63119;51.788;8.824;2023-08-06T06:35:38;98919.31;;;16.86;87.27
74613;BME280;63119;51.788;8.824;2023-08-06T06:38:03;98917.16;;;16.89;86.71
74613;BME280;63119;51.788;8.824;2023-08-06T06:40:28;98919.13;;;16.87;85.96
74613;BME280;63119;51.788;8.824;2023-08-06T06:42:54;98915.94;;;17.08;86.01
74613;BME280;63119;51.788;8.824;2023-08-06T06:45:19;98920.59;;;17.14;85.69
74613;BME280;63119;51.788;8.824;2023-08-06T06:47:51;98905.81;;;17.34;85.56
74613;BME280;63119;51.788;8.824;2023-08-06T06:50:16;98902.72;;;17.54;84.61
74613;BME280;63119;51.788;8.824;2023-08-06T06:52:41;98902.34;;;17.65;82.77
74613;BME280;63119;51.788;8.824;2023-08-06T06:55:07;98901.03;;;17.61;82.77
74613;BME280;63119;51.788;8.824;2023-08-06T06:57:32;98900.06;;;17.84;82.16
74613;BME280;63119;51.788;8.824;2023-08-06T06:59:58;98908.06;;;17.62;82.41
74613;BME280;63119;51.788;8.824;2023-08-06T07:02:23;98905.91;;;17.88;81.43
74613;BME280;63119;51.788;8.824;2023-08-06T07:04:49;98899.56;;;18.34;79.76
74613;BME280;63119;51.788;8.824;2023-08-06T07:07:15;98899.59;;;18.72;77.97
74613;BME280;63119;51.788;8.824;2023-08-06T07:09:40;98887.16;;;19.08;76.93
74613;BME280;63119;51.788;8.824;2023-08-06T07:12:06;98885.59;;;19.57;75.05
74613;BME280;63119;51.788;8.824;2023-08-06T07:14:31;98886.72;;;19.84;73.53
74613;BME280;63119;51.788;8.824;2023-08-06T07:16:56;98887.81;;;20.11;74.08
74613;BME280;63119;51.788;8.824;2023-08-06T07:19:23;98886.25;;;20.38;70.75
74613;BME280;63119;51.788;8.824;2023-08-06T07:21:48;98886.28;;;21.21;70.75
74613;BME280;63119;51.788;8.824;2023-08-06T07:24:13;98879.59;;;21.10;68.06
74613;BME280;63119;51.788;8.824;2023-08-06T07:26:39;98877.00;;;21.77;67.86
74613;BME280;63119;51.788;8.824;2023-08-06T07:29:04;98870.59;;;21.78;64.92
74613;BME280;63119;51.788;8.824;2023-08-06T07:31:29;98866.75;;;22.14;61.81
74613;BME280;63119;51.788;8.824;2023-08-06T07:33:55;98871.13;;;22.41;62.20
74613;BME280;63119;51.788;8.824;2023-08-06T07:36:20;98867.09;;;21.37;62.80
74613;BME280;63119;51.788;8.824;2023-08-06T07:38:45;98868.47;;;21.67;62.53
74613;BME280;63119;51.788;8.824;2023-08-06T07:41:11;98869.28;;;22.22;62.04
74613;BME280;63119;51.788;8.824;2023-08-06T07:43:36;98873.78;;;22.02;60.79
74613;BME280;63119;51.788;8.824;2023-08-06T07:46:01;98876.72;;;22.53;61.09
74613;BME280;63119;51.788;8.824;2023-08-06T07:48:27;98877.16;;;21.22;62.54
74613;BME280;63119;51.788;8.824;2023-08-06T07:50:54;98880.69;;;20.95;63.31
74613;BME280;63119;51.788;8.824;2023-08-06T07:53:21;98878.75;;;20.82;65.45
74613;BME280;63119;51.788;8.824;2023-08-06T07:55:50;98871.47;;;20.48;64.96
74613;BME280;63119;51.788;8.824;2023-08-06T07:58:16;98877.16;;;21.15;64.94
74613;BME280;63119;51.788;8.824;2023-08-06T08:00:42;98871.38;;;21.18;61.95
74613;BME280;63119;51.788;8.824;2023-08-06T08:03:11;98869.47;;;22.27;61.29
74613;BME280;63119;51.788;8.824;2023-08-06T08:05:36;98866.78;;;22.33;59.96
74613;BME280;63119;51.788;8.824;2023-08-06T08:08:01;98863.06;;;22.87;57.58
74613;BME280;63119;51.788;8.824;2023-08-06T08:10:26;98865.97;;;22.33;58.30
74613;BME280;63119;51.788;8.824;2023-08-06T08:12:52;98866.78;;;22.27;59.71
74613;BME280;63119;51.788;8.824;2023-08-06T08:15:17;98872.78;;;22.09;60.77
74613;BME280;63119;51.788;8.824;2023-08-06T08:17:43;98873.72;;;21.07;60.28
74613;BME280;63119;51.788;8.824;2023-08-06T08:20:08;98871.84;;;21.01;62.24
74613;BME280;63119;51.788;8.824;2023-08-06T08:22:34;98868.69;;;20.91;62.93
74613;BME280;63119;51.788;8.824;2023-08-06T08:24:59;98870.81;;;20.46;64.51
74613;BME280;63119;51.788;8.824;2023-08-06T08:27:24;98877.81;;;20.96;64.78
74613;BME280;63119;51.788;8.824;2023-08-06T08:29:49;98873.44;;;21.23;63.95
74613;BME280;63119;51.788;8.824;2023-08-06T08:32:15;98869.25;;;22.09;63.57
74613;BME280;63119;51.788;8.824;2023-08-06T08:34:40;98875.03;;;22.06;61.20
74613;BME280;63119;51.788;8.824;2023-08-06T08:37:05;98871.16;;;21.67;61.99
74613;BME280;63119;51.788;8.824;2023-08-06T08:39:31;98871.94;;;21.48;63.91
74613;BME280;63119;51.788;8.824;2023-08-06T08:41:56;98872.66;;;21.29;63.82
74613;BME280;63119;51.788;8.824;2023-08-06T08:44:21;98867.59;;;21.13;64.68
74613;BME280;63119;51.788;8.824;2023-08-06T08:46:48;98868.47;;;21.20;64.04
74613;BME280;63119;51.788;8.824;2023-08-06T08:49:14;98866.97;;;21.11;65.07
74613;BME280;63119;51.788;8.824;2023-08-06T08:51:39;98875.41;;;21.08;64.86
74613;BME280;63119;51.788;8.824;2023-08-06T08:54:07;98865.44;;;21.02;64.50
74613;BME280;63119;51.788;8.824;2023-08-06T08:56:33;98873.94;;;21.05;65.79
74613;BME280;63119;51.788;8.824;2023-08-06T08:58:58;98876.00;;;21.03;66.47
74613;BME280;63119;51.788;8.824;2023-08-06T09:01:25;98882.19;;;20.97;66.65
74613;BME280;63119;51.788;8.824;2023-08-06T09:03:51;98884.44;;;20.94;66.50
74613;BME280;63119;51.788;8.824;2023-08-06T09:06:17;98885.41;;;20.86;67.80
74613;BME280;63119;51.788;8.824;2023-08-06T09:08:51;98883.94;;;20.84;67.43
74613;BME280;63119;51.788;8.824;2023-08-06T09:11:20;98877.75;;;20.90;67.11
74613;BME280;63119;51.788;8.824;2023-08-06T09:13:47;98873.28;;;20.97;66.94
74613;BME280;63119;51.788;8.824;2023-08-06T09:16:12;98874.56;;;21.07;65.41
74613;BME280;63119;51.788;8.824;2023-08-06T09:18:38;98871.94;;;21.14;64.69
74613;BME280;63119;51.788;8.824;2023-08-06T09:21:04;98865.13;;;21.11;64.30
74613;BME280;63119;51.788;8.824;2023-08-06T09:23:32;98876.38;;;21.28;64.28
74613;BME280;63119;51.788;8.824;2023-08-06T09:25:59;98868.16;;;21.36;63.97
74613;BME280;63119;51.788;8.824;2023-08-06T09:28:24;98869.84;;;21.50;63.80
74613;BME280;63119;51.788;8.824;2023-08-06T09:30:52;98867.84;;;21.65;63.56
74613;BME280;63119;51.788;8.824;2023-08-06T09:33:22;98863.97;;;21.81;61.32
74613;BME280;63119;51.788;8.824;2023-08-06T09:35:47;98862.31;;;21.87;60.62
74613;BME280;63119;51.788;8.824;2023-08-06T09:38:13;98864.06;;;22.20;62.16
74613;BME280;63119;51.788;8.824;2023-08-06T09:40:39;98860.59;;;22.46;59.16
74613;BME280;63119;51.788;8.824;2023-08-06T09:43:04;98864.69;;;22.62;60.94
74613;BME280;63119;51.788;8.824;2023-08-06T09:45:37;98866.59;;;22.81;59.73
74613;BME280;63119;51.788;8.824;2023-08-06T09:48:07;98861.63;;;22.71;58.34
74613;BME280;63119;51.788;8.824;2023-08-06T09:50:34;98860.97;;;22.56;59.36
74613;BME280;63119;51.788;8.824;2023-08-06T09:53:02;98859.94;;;22.44;59.50
74613;BME280;63119;51.788;8.824;2023-08-06T09:55:28;98854.34;;;22.13;61.00
74613;BME280;63119;51.788;8.824;2023-08-06T09:57:53;98852.06;;;22.36;61.82
74613;BME280;63119;51.788;8.824;2023-08-06T10:00:20;98853.69;;;23.03;60.50
74613;BME280;63119;51.788;8.824;2023-08-06T10:02:46;98854.78;;;22.69;57.93
74613;BME280;63119;51.788;8.824;2023-08-06T10:05:11;98856.41;;;22.24;59.56
74613;BME280;63119;51.788;8.824;2023-08-06T10:07:37;98848.53;;;22.88;60.26
74613;BME280;63119;51.788;8.824;2023-08-06T10:10:05;98851.53;;;23.37;55.36
74613;BME280;63119;51.788;8.824;2023-08-06T10:12:34;98849.38;;;22.49;55.80
74613;BME280;63119;51.788;8.824;2023-08-06T10:15:04;98847.53;;;22.43;58.80
74613;BME280;63119;51.788;8.824;2023-08-06T10:17:31;98850.19;;;22.23;56.97
74613;BME280;63119;51.788;8.824;2023-08-06T10:19:59;98840.19;;;22.04;57.45
74613;BME280;63119;51.788;8.824;2023-08-06T10:22:24;98845.78;;;21.90;57.70
74613;BME280;63119;51.788;8.824;2023-08-06T10:24:52;98843.31;;;22.08;57.33
74613;BME280;63119;51.788;8.824;2023-08-06T10:27:35;98847.28;;;21.45;58.92
74613;BME280;63119;51.788;8.824;2023-08-06T10:30:21;98841.75;;;21.66;59.82
74613;BME280;63119;51.788;8.824;2023-08-06T10:32:55;98839.00;;;22.07;59.61
74613;BME280;63119;51.788;8.824;2023-08-06T10:37:58;98844.94;;;21.89;57.96
74613;BME280;63119;51.788;8.824;2023-08-06T10:40:24;98836.88;;;21.89;56.11
74613;BME280;63119;51.788;8.824;2023-08-06T10:42:51;98837.34;;;22.12;57.22
74613;BME280;63119;51.788;8.824;2023-08-06T10:45:19;98834.25;;;22.22;57.26
74613;BME280;63119;51.788;8.824;2023-08-06T10:47:46;98834.84;;;22.17;56.13
74613;BME280;63119;51.788;8.824;2023-08-06T10:50:13;98832.97;;;22.18;55.64
74613;BME280;63119;51.788;8.824;2023-08-06T10:52:41;98832.16;;;22.24;56.46
74613;BME280;63119;51.788;8.824;2023-08-06T10:55:07;98823.66;;;22.01;55.27
74613;BME280;63119;51.788;8.824;2023-08-06T10:57:32;98821.59;;;22.16;54.70
74613;BME280;63119;51.788;8.824;2023-08-06T10:59:58;98820.75;;;22.09;54.43
74613;BME280;63119;51.788;8.824;2023-08-06T11:02:23;98827.50;;;21.78;54.47
74613;BME280;63119;51.788;8.824;2023-08-06T11:04:48;98830.28;;;22.18;55.24
74613;BME280;63119;51.788;8.824;2023-08-06T11:07:14;98830.09;;;22.46;56.18
74613;BME280;63119;51.788;8.824;2023-08-06T11:09:39;98816.63;;;22.65;56.80
74613;BME280;63119;51.788;8.824;2023-08-06T11:12:11;98825.34;;;22.67;57.48
74613;BME280;63119;51.788;8.824;2023-08-06T11:14:36;98823.66;;;22.60;55.32
74613;BME280;63119;51.788;8.824;2023-08-06T11:17:04;98819.31;;;22.65;56.19
74613;BME280;63119;51.788;8.824;2023-08-06T11:19:30;98824.91;;;22.70;56.83
74613;BME280;63119;51.788;8.824;2023-08-06T11:21:55;98817.22;;;22.74;56.42
74613;BME280;63119;51.788;8.824;2023-08-06T11:24:21;98825.72;;;22.71;56.12
74613;BME280;63119;51.788;8.824;2023-08-06T11:26:48;98825.31;;;22.80;55.73
74613;BME280;63119;51.788;8.824;2023-08-06T11:29:15;98827.81;;;22.69;57.29
74613;BME280;63119;51.788;8.824;2023-08-06T11:31:40;98824.78;;;23.23;55.39
74613;BME280;63119;51.788;8.824;2023-08-06T11:34:06;98820.09;;;23.56;55.06
74613;BME280;63119;51.788;8.824;2023-08-06T11:36:32;98805.53;;;23.64;55.07
74613;BME280;63119;51.788;8.824;2023-08-06T11:38:59;98803.88;;;23.94;55.42
74613;BME280;63119;51.788;8.824;2023-08-06T11:41:25;98815.28;;;23.96;54.33
74613;BME280;63119;51.788;8.824;2023-08-06T11:43:52;98813.88;;;24.25;52.75
74613;BME280;63119;51.788;8.824;2023-08-06T11:46:18;98812.31;;;24.11;53.47
74613;BME280;63119;51.788;8.824;2023-08-06T11:48:53;98811.72;;;24.02;54.10
74613;BME280;63119;51.788;8.824;2023-08-06T11:51:22;98806.97;;;23.98;54.72
74613;BME280;63119;51.788;8.824;2023-08-06T11:53:55;98802.88;;;23.88;54.07
74613;BME280;63119;51.788;8.824;2023-08-06T11:56:21;98795.66;;;24.14;53.85
74613;BME280;63119;51.788;8.824;2023-08-06T11:58:46;98795.91;;;24.37;53.70
74613;BME280;63119;51.788;8.824;2023-08-06T12:01:11;98787.16;;;24.35;52.73
74613;BME280;63119;51.788;8.824;2023-08-06T12:03:41;98792.16;;;24.13;53.39
74613;BME280;63119;51.788;8.824;2023-08-06T12:06:06;98800.09;;;23.70;53.15
74613;BME280;63119;51.788;8.824;2023-08-06T12:08:34;98794.75;;;23.57;53.14
74613;BME280;63119;51.788;8.824;2023-08-06T12:11:00;98797.06;;;23.47;53.89
74613;BME280;63119;51.788;8.824;2023-08-06T12:13:25;98793.78;;;23.38;54.11
74613;BME280;63119;51.788;8.824;2023-08-06T12:15:50;98792.75;;;23.33;54.85
74613;BME280;63119;51.788;8.824;2023-08-06T12:18:18;98787.13;;;23.41;54.23
74613;BME280;63119;51.788;8.824;2023-08-06T12:20:43;98786.06;;;23.49;55.01
74613;BME280;63119;51.788;8.824;2023-08-06T12:23:08;98784.22;;;23.49;55.55
74613;BME280;63119;51.788;8.824;2023-08-06T12:25:34;98780.44;;;23.50;57.16
74613;BME280;63119;51.788;8.824;2023-08-06T12:28:00;98771.00;;;23.28;58.35
74613;BME280;63119;51.788;8.824;2023-08-06T12:30:25;98776.81;;;23.25;58.29
74613;BME280;63119;51.788;8.824;2023-08-06T12:32:51;98779.56;;;23.12;58.73
74613;BME280;63119;51.788;8.824;2023-08-06T12:35:16;98787.94;;;22.84;59.56
74613;BME280;63119;51.788;8.824;2023-08-06T12:37:42;98781.75;;;22.57;60.89
74613;BME280;63119;51.788;8.824;2023-08-06T12:40:09;98786.34;;;22.37;61.36
74613;BME280;63119;51.788;8.824;2023-08-06T12:42:34;98790.06;;;22.16;62.18
74613;BME280;63119;51.788;8.824;2023-08-06T12:44:59;98782.59;;;21.99;63.02
74613;BME280;63119;51.788;8.824;2023-08-06T12:47:25;98784.91;;;22.21;62.56
74613;BME280;63119;51.788;8.824;2023-08-06T12:49:50;98791.31;;;22.27;62.33
74613;BME280;63119;51.788;8.824;2023-08-06T12:52:15;98783.03;;;22.22;62.56
74613;BME280;63119;51.788;8.824;2023-08-06T12:54:41;98790.47;;;22.20;62.24
74613;BME280;63119;51.788;8.824;2023-08-06T12:57:06;98787.78;;;22.26;62.56
74613;BME280;63119;51.788;8.824;2023-08-06T12:59:32;98777.66;;;22.22;60.69
74613;BME280;63119;51.788;8.824;2023-08-06T13:01:58;98783.84;;;22.29;60.76